Lynd, Minnesota
Current Conditions -  °F | °C
As of 10:35 AM on Sunday 21 Dec 2014 (Local Time) from KMML Reporting Station
Overcast Overcast  
Wind Chill: 26°   Ceiling: 600
Heat Index: 34°   Visibility: 7mi
Dew Point: 30°   Wind: 9mph
Humidity: 87%   Direction: 180°S
Pressure: 29.74"   Gusts: NA
Location:  44.39°N, 95.89°W
Report Text: KMML 211635Z AUTO 18008KT 7SM OVC006 01/M01 A2974 RMK AO1
Loading
Personal Weather Stations






























Interactive Weather Map New forecast layout! Learn more

10-Day Weather Forecast

Advertisements
Track Severe Weather on mobile